Altair Leader — 7JJJ — position and weather

sailwx.info

Track history (hours):
 
Tides and Currents Weather Stations Pressure Air Temp Water Temp Dewpoint Dewpoint Depression Visibility Wind Speed Wind Dir Waves Ship Positions

Altair Leader

Last reported at 2018-Jun-13 18:22 UTC. Time now 2018-Jun-20 19:09 UTC.
Position N 27°31' W 015°15'.

Length 199 m; draft 7.8 m.

Type: Cargo ship. MMSI: 432817000.

Date/timePositionNaut miles runAvg speedWind from/ knotsBaromVisibWave heightAir tempDewpointWater temp
2018-Jun-13 18:22N 27°31' W 015°15'718.1
2018-Jun-13 18:00N 27°38' W 015°12'918.5
2018-Jun-13 17:30N 27°46' W 015°09'918.5
2018-Jun-13 17:01N 27°55' W 015°05'918.1
2018-Jun-13 16:30N 28°04' W 015°02'918.0
2018-Jun-13 16:01N 28°12' W 014°59'918.2
2018-Jun-13 15:31N 28°21' W 014°55'918.0
2018-Jun-13 15:01N 28°29' W 014°52'918.1
2018-Jun-13 14:30N 28°38' W 014°50'1317.6
2018-Jun-13 13:48N 28°50' W 014°46'917.5
2018-Jun-13 13:16N 28°59' W 014°43'  
2018-Jun-10 16:15N 48°43' W 005°57'518.2
2018-Jun-10 15:59N 48°47' W 005°54'1017.6
2018-Jun-10 15:26N 48°55' W 005°45'716.4
2018-Jun-10 14:58N 48°59' W 005°35'8316.2
2018-Jun-10 09:50N 49°44' W 003°48'619.0
2018-Jun-10 09:31N 49°46' W 003°39'1019.0
2018-Jun-10 09:01N 49°50' W 003°26'1018.9
2018-Jun-10 08:30N 49°54' W 003°12'918.5
2018-Jun-10 08:01N 49°58' W 002°59'918.2
2018-Jun-10 07:31N 50°01' W 002°46'917.6
2018-Jun-10 07:00N 50°03' W 002°33'1217.0
2018-Jun-10 06:18N 50°06' W 002°14'516.4
2018-Jun-10 05:58N 50°07' W 002°06'815.9
2018-Jun-10 05:28N 50°09' W 001°54'815.5
2018-Jun-10 04:57N 50°12' W 001°42'715.5
2018-Jun-10 04:30N 50°14' W 001°32'815.6
2018-Jun-10 04:00N 50°16' W 001°20'815.9
2018-Jun-10 03:29N 50°18' W 001°08'816.6
2018-Jun-10 03:00N 50°20' W 000°56'917.4
2018-Jun-10 02:30N 50°21' W 000°42'917.8
2018-Jun-10 02:00N 50°24' W 000°29'1018.5
2018-Jun-10 01:29N 50°27' W 000°14'919.0
2018-Jun-10 01:00N 50°28' W 000°00'1019.2
2018-Jun-10 00:30N 50°31' E 000°14'1019.1
2018-Jun-10 00:01N 50°34' E 000°28'918.7
2018-Jun-09 23:30N 50°38' E 000°42'918.3
2018-Jun-09 23:00N 50°44' E 000°52'918.0
2018-Jun-09 22:31N 50°50' E 001°02'917.5
2018-Jun-09 22:01N 50°56' E 001°12'816.7
2018-Jun-09 21:30N 51°02' E 001°22'816.6
2018-Jun-09 21:00N 51°07' E 001°33'816.3
2018-Jun-09 20:30N 51°12' E 001°43'816.8
2018-Jun-09 20:01N 51°19' E 001°50'917.7
2018-Jun-09 19:31N 51°27' E 001°57'918.2
2018-Jun-09 19:00N 51°34' E 002°07'918.6
2018-Jun-09 18:30N 51°41' E 002°16'918.9
2018-Jun-09 18:00N 51°48' E 002°27'1019.2
2018-Jun-09 17:31N 51°55' E 002°37'1019.3
2018-Jun-09 17:01N 52°02' E 002°47'1019.4
2018-Jun-09 16:30N 52°10' E 002°58'1019.4
2018-Jun-09 16:00N 52°17' E 003°08'1918.9
2018-Jun-09 14:59N 52°33' E 003°26'918.2
2018-Jun-09 14:30N 52°40' E 003°35'917.8
2018-Jun-09 14:00N 52°47' E 003°43'917.4
2018-Jun-09 13:30N 52°54' E 003°53'917.1
2018-Jun-09 13:00N 52°60' E 004°02'917.2
2018-Jun-09 12:30N 53°06' E 004°13'817.1
2018-Jun-09 12:00N 53°12' E 004°23'917.0
2018-Jun-09 11:30N 53°19' E 004°30'917.6
2018-Jun-09 11:00N 53°27' E 004°37'918.0
2018-Jun-09 10:30N 53°31' E 004°51'918.7
2018-Jun-09 10:00N 53°34' E 005°05'1019.3
2018-Jun-09 09:30N 53°37' E 005°21'1019.1
2018-Jun-09 09:01N 53°40' E 005°36'918.9
2018-Jun-09 08:31N 53°43' E 005°51'918.8
2018-Jun-09 08:00N 53°46' E 006°06'918.4
2018-Jun-09 07:30N 53°49' E 006°21'918.0
2018-Jun-09 06:59N 53°51' E 006°37'817.5
2018-Jun-09 06:30N 53°53' E 006°51'917.2
2018-Jun-09 06:00N 53°55' E 007°04'917.0
2018-Jun-09 05:30N 53°57' E 007°19'816.8
2018-Jun-09 05:01N 53°58' E 007°33'714.1
2018-Jun-09 04:30N 53°55' E 007°43'714.2
2018-Jun-09 04:00N 53°52' E 007°54'612.0
2018-Jun-09 03:30N 53°50' E 008°04'511.0
2018-Jun-09 03:00N 53°46' E 008°10'815.1
2018-Jun-09 02:30N 53°42' E 008°20'815.3
2018-Jun-09 02:00N 53°36' E 008°30'3 6.0
2018-Jun-09 01:30N 53°34' E 008°33'0 0.2
2018-Jun-09 01:00N 53°34' E 008°33'0 0.7
2018-Jun-09 00:28N 53°35' E 008°33'0 0.0
2018-Jun-08 23:58N 53°35' E 008°33'0 0.0
2018-Jun-08 23:25N 53°35' E 008°33'0 0.0
2018-Jun-08 22:58N 53°35' E 008°33'0 0.0
2018-Jun-08 22:28N 53°35' E 008°33'0 0.0
2018-Jun-08 21:58N 53°35' E 008°33'0 0.0
2018-Jun-08 21:28N 53°35' E 008°33'0 0.0
2018-Jun-08 20:58N 53°35' E 008°33'0 0.0
2018-Jun-08 20:28N 53°35' E 008°33'0 0.0
2018-Jun-08 19:58N 53°35' E 008°33'0 0.0
2018-Jun-08 19:28N 53°35' E 008°33'0 0.0
2018-Jun-08 18:58N 53°35' E 008°33'0 0.0
2018-Jun-08 18:28N 53°35' E 008°33'0 0.0
2018-Jun-08 17:55N 53°35' E 008°33'0 0.0
2018-Jun-08 17:28N 53°35' E 008°33'0 0.0
2018-Jun-08 16:58N 53°35' E 008°33'0 0.0
2018-Jun-08 16:28N 53°35' E 008°33'0 0.0
2018-Jun-08 15:58N 53°35' E 008°33'0 0.0
2018-Jun-08 15:28N 53°35' E 008°33'0 0.0
2018-Jun-08 14:58N 53°35' E 008°33'0 0.0
2018-Jun-08 14:28N 53°35' E 008°33'0 0.0
2018-Jun-08 13:58N 53°35' E 008°33'0 0.0
2018-Jun-08 13:25N 53°35' E 008°33'0 0.0
2018-Jun-08 12:58N 53°35' E 008°33'0 0.5
2018-Jun-08 12:30N 53°34' E 008°33'0 0.3
2018-Jun-08 12:00N 53°34' E 008°33'0 0.6
2018-Jun-08 11:30N 53°34' E 008°32'4 8.4
2018-Jun-08 11:00N 53°37' E 008°28'713.7
2018-Jun-08 10:30N 53°42' E 008°20'714.5
2018-Jun-08 10:00N 53°47' E 008°10'714.2
2018-Jun-08 09:30N 53°51' E 008°00'714.2
2018-Jun-08 09:00N 53°54' E 007°49'1 2.5
2018-Jun-08 08:30N 53°54' E 007°48'0 0.0
2018-Jun-08 08:00N 53°54' E 007°48'0 0.0
2018-Jun-08 07:30N 53°54' E 007°48'0 0.0
2018-Jun-08 07:00N 53°54' E 007°48'0 0.1
2018-Jun-08 06:30N 53°54' E 007°48'0 0.0
2018-Jun-08 06:00N 53°54' E 007°48'0 0.0
2018-Jun-08 05:30N 53°54' E 007°48'0 0.0
2018-Jun-08 05:00N 53°54' E 007°48'0 0.0
2018-Jun-08 04:30N 53°54' E 007°48'0 0.0
2018-Jun-08 03:57N 53°54' E 007°48'0 0.0
2018-Jun-08 03:30N 53°54' E 007°48'0 0.0
2018-Jun-08 03:00N 53°54' E 007°48'0 0.0
2018-Jun-08 02:15N 53°54' E 007°48'0 0.0
2018-Jun-08 02:00N 53°54' E 007°48'0 0.0
2018-Jun-08 01:27N 53°54' E 007°48'0 0.0
2018-Jun-08 00:48N 53°54' E 007°48'0 0.0
2018-Jun-08 00:27N 53°54' E 007°48'0 0.0
2018-Jun-08 00:00N 53°54' E 007°48'0 0.0
2018-Jun-07 23:27N 53°54' E 007°48'0 0.0
2018-Jun-07 23:00N 53°54' E 007°48'0 0.0
2018-Jun-07 22:30N 53°54' E 007°48'0 0.0
2018-Jun-07 22:00N 53°54' E 007°48'0 0.0
2018-Jun-07 21:12N 53°54' E 007°48'1 0.5
2018-Jun-07 19:16N 53°54' E 007°46'4313.2
2018-Jun-07 16:02N 53°46' E 006°35'214.8
2018-Jun-07 15:53N 53°46' E 006°31'614.9
2018-Jun-07 15:27N 53°44' E 006°21'715.0
2018-Jun-07 14:57N 53°42' E 006°09'715.0
2018-Jun-07 14:28N 53°40' E 005°57'715.1
2018-Jun-07 14:00N 53°38' E 005°46'815.3
2018-Jun-07 13:30N 53°35' E 005°34'815.7
2018-Jun-07 13:01N 53°33' E 005°21'815.5
2018-Jun-07 12:31N 53°31' E 005°08'815.5
2018-Jun-07 12:01N 53°28' E 004°56'4260.8
2018-Jun-07 12:00N 53°24' E 004°54'611.9 340 / 121015.910.8 18.016.315.0
2018-Jun-07 11:30N 53°25' E 004°44'815.4
2018-Jun-07 11:00N 53°18' E 004°38'815.9
2018-Jun-07 10:30N 53°12' E 004°31'918.8
2018-Jun-07 10:00N 53°03' E 004°23'919.0
2018-Jun-07 09:31N 52°55' E 004°16'918.7
2018-Jun-07 09:00N 52°47' E 004°08'918.4
2018-Jun-07 08:31N 52°40' E 003°58'918.3
2018-Jun-07 08:01N 52°33' E 003°49'918.0
2018-Jun-07 07:30N 52°26' E 003°38'918.1
2018-Jun-07 07:00N 52°20' E 003°27'1018.0
2018-Jun-07 06:29N 52°14' E 003°16'917.7
2018-Jun-07 06:00N 52°07' E 003°06'2617.2
2018-Jun-07 04:30N 51°48' E 002°39'1216.0
2018-Jun-07 03:46N 51°36' E 002°42'516.6
2018-Jun-07 03:28N 51°31' E 002°42'715.3
2018-Jun-07 02:59N 51°24' E 002°43'511.4
2018-Jun-07 02:31N 51°25' E 002°51'916.7
2018-Jun-07 01:58N 51°24' E 003°06'511.6
2018-Jun-07 01:30N 51°21' E 003°12'1 1.3
2018-Jun-07 00:59N 51°20' E 003°13'0 0.0
2018-Jun-07 00:30N 51°20' E 003°13'0 0.2
2018-Jun-07 00:00N 51°20' E 003°13'2 3.7
2018-Jun-06 23:30N 51°18' E 003°14'0 0.0
2018-Jun-06 23:00N 51°18' E 003°14'0 0.0
2018-Jun-06 22:30N 51°18' E 003°14'0 0.0
2018-Jun-06 21:57N 51°18' E 003°14'0 0.0
2018-Jun-06 21:24N 51°18' E 003°14'0 0.0
2018-Jun-06 21:00N 51°18' E 003°14'0 0.0
2018-Jun-06 20:27N 51°18' E 003°14'0 0.0
2018-Jun-06 20:00N 51°18' E 003°14'0 0.0
2018-Jun-06 19:30N 51°18' E 003°14'0 0.0
2018-Jun-06 19:00N 51°18' E 003°14'0 0.0
2018-Jun-06 17:03N 51°18' E 003°14'0 0.0
2018-Jun-06 16:42N 51°18' E 003°14'0 0.0
2018-Jun-06 16:27N 51°18' E 003°14'0 0.0
2018-Jun-06 15:48N 51°18' E 003°14'0 0.0
2018-Jun-06 15:27N 51°18' E 003°14'0 0.0
2018-Jun-06 14:57N 51°18' E 003°14'0 0.0
2018-Jun-06 14:30N 51°18' E 003°14'0 0.0
2018-Jun-06 14:00N 51°18' E 003°14'0 0.0
2018-Jun-06 13:30N 51°18' E 003°14'0 0.0
2018-Jun-06 13:00N 51°18' E 003°14'0 0.0
2018-Jun-06 12:30N 51°18' E 003°14'0 0.0
2018-Jun-06 11:57N 51°18' E 003°14'0 0.0
2018-Jun-06 11:30N 51°18' E 003°14'0 0.0
2018-Jun-06 10:57N 51°18' E 003°14'0 0.0
2018-Jun-06 10:30N 51°18' E 003°14'0 0.0
2018-Jun-06 10:00N 51°18' E 003°14'0 0.0
2018-Jun-06 09:27N 51°18' E 003°14'0 0.0
2018-Jun-06 09:00N 51°18' E 003°14'0 0.0
2018-Jun-06 08:30N 51°18' E 003°14'0 0.0
2018-Jun-06 07:57N 51°18' E 003°14'0 0.0
2018-Jun-06 07:30N 51°18' E 003°14'0 0.0
2018-Jun-06 07:00N 51°18' E 003°14'0 0.0
2018-Jun-06 06:30N 51°18' E 003°14'0 0.0
2018-Jun-06 06:00N 51°18' E 003°14'0 0.0
2018-Jun-06 05:30N 51°18' E 003°14'0 0.0
2018-Jun-06 05:00N 51°18' E 003°14'0 0.0
2018-Jun-06 04:27N 51°18' E 003°14'0 0.0
2018-Jun-06 04:00N 51°18' E 003°14'0 0.0
2018-Jun-06 03:30N 51°18' E 003°14'0 0.0
2018-Jun-06 03:00N 51°18' E 003°14'0 0.0
2018-Jun-06 02:30N 51°18' E 003°14'0 0.0
2018-Jun-06 02:00N 51°18' E 003°14'0 0.0
2018-Jun-06 01:30N 51°18' E 003°14'2 3.2
2018-Jun-06 01:00N 51°20' E 003°13'0 0.6
2018-Jun-06 00:30N 51°20' E 003°13'0 0.0
2018-Jun-06 00:00N 51°20' E 003°13'1 2.7
2018-Jun-05 23:30N 51°21' E 003°12'510.8
2018-Jun-05 23:01N 51°24' E 003°05'713.7
2018-Jun-05 22:30N 51°22' E 002°54'612.4
2018-Jun-05 22:00N 51°22' E 002°44'5 8.6
2018-Jun-05 21:28N 51°22' E 002°37'2 4.6
2018-Jun-05 21:00N 51°22' E 002°33'510.3
2018-Jun-05 20:30N 51°20' E 002°26'510.9
2018-Jun-05 20:00N 51°18' E 002°18'714.3
2018-Jun-05 19:30N 51°15' E 002°08'917.1
2018-Jun-05 19:00N 51°11' E 001°56'917.7
2018-Jun-05 18:30N 51°05' E 001°45'918.2
2018-Jun-05 18:00N 50°58' E 001°35'918.1
2018-Jun-05 17:29N 50°51' E 001°25'917.9
2018-Jun-05 16:58N 50°42' E 001°21'816.8
2018-Jun-05 16:29N 50°36' E 001°12'917.1
2018-Jun-05 15:58N 50°31' E 001°02'1516.8
2018-Jun-05 15:03N 50°26' E 000°39'317.1
2018-Jun-05 14:53N 50°25' E 000°35'717.4
2018-Jun-05 14:30N 50°23' E 000°25'918.0
2018-Jun-05 14:00N 50°21' E 000°11'918.3
2018-Jun-05 13:30N 50°18' W 000°02'918.7
2018-Jun-05 13:00N 50°15' W 000°17'918.9
2018-Jun-05 12:30N 50°13' W 000°31'1019.3
2018-Jun-05 12:00N 50°06' W 000°42'5106.7 040 / 131015.310.8 15.015.013.0
2018-Jun-05 11:56N 50°10' W 000°47'819.4
2018-Jun-05 11:31N 50°08' W 000°60'1019.3
2018-Jun-05 11:01N 50°06' W 001°15'1019.0
2018-Jun-05 10:31N 50°03' W 001°28'918.9
2018-Jun-05 10:00N 50°00' W 001°43'918.3
2018-Jun-05 09:31N 49°59' W 001°57'917.8
2018-Jun-05 09:00N 49°56' W 002°10'2417.1
2018-Jun-05 07:34N 49°51' W 002°47'617.0
2018-Jun-05 07:15N 49°50' W 002°56'716.8
2018-Jun-05 06:49N 49°50' W 003°06'516.7
2018-Jun-05 06:31N 49°49' W 003°15'816.5
2018-Jun-05 06:00N 49°49' W 003°28'816.3
2018-Jun-05 05:30N 49°49' W 003°40'9211.4
2018-Jun-04 21:29N 50°33' W 005°46'817.2
2018-Jun-04 21:00N 50°38' W 005°36'917.1
2018-Jun-04 20:30N 50°43' W 005°25'917.1
2018-Jun-04 20:00N 50°48' W 005°14'917.1
2018-Jun-04 19:30N 50°53' W 005°03'817.0
2018-Jun-04 19:00N 50°59' W 004°52'815.8
2018-Jun-04 18:30N 51°03' W 004°42'612.9
2018-Jun-04 18:01N 51°07' W 004°34'713.3
2018-Jun-04 17:29N 51°12' W 004°26'1013.5
2018-Jun-04 16:44N 51°18' W 004°13'3615.3
2018-Jun-04 14:21N 51°21' W 003°15'410.8
2018-Jun-04 13:58N 51°22' W 003°08'816.6
2018-Jun-04 13:30N 51°27' W 002°59'11 5.2
2018-Jun-04 11:30N 51°30' W 002°43'0 0.0
2018-Jun-04 11:00N 51°30' W 002°43'0 0.0
2018-Jun-04 10:30N 51°30' W 002°43'0 0.0
2018-Jun-04 10:00N 51°30' W 002°43'0 0.0
2018-Jun-04 09:30N 51°30' W 002°43'0 0.0
2018-Jun-04 09:00N 51°30' W 002°43'0 0.0
2018-Jun-04 08:30N 51°30' W 002°43'0 0.0
2018-Jun-04 08:00N 51°30' W 002°43'0 0.0
2018-Jun-04 07:30N 51°30' W 002°43'0 0.0
2018-Jun-04 07:00N 51°30' W 002°43'0 0.0
2018-Jun-04 06:30N 51°30' W 002°43'0 0.0
2018-Jun-04 05:54N 51°30' W 002°43'0 0.0
2018-Jun-04 05:30N 51°30' W 002°43'0 0.0
2018-Jun-04 05:00N 51°30' W 002°43'0 0.0
2018-Jun-04 04:30N 51°30' W 002°43'0 0.0
2018-Jun-04 04:00N 51°30' W 002°43'0 0.0
2018-Jun-04 03:30N 51°30' W 002°43'0 0.0
2018-Jun-04 03:00N 51°30' W 002°43'0 0.0
2018-Jun-04 02:30N 51°30' W 002°43'0 0.0
2018-Jun-04 02:00N 51°30' W 002°43'0 0.0
2018-Jun-04 01:30N 51°30' W 002°43'0 0.0
2018-Jun-04 01:00N 51°30' W 002°43'0 0.0
2018-Jun-04 00:30N 51°30' W 002°43'0 0.0
2018-Jun-04 00:00N 51°30' W 002°43'0 0.0
2018-Jun-03 23:30N 51°30' W 002°43'0 0.0
2018-Jun-03 23:00N 51°30' W 002°43'0 0.8
2018-Jun-03 22:30N 51°30' W 002°43'0 0.9
2018-Jun-03 22:00N 51°30' W 002°44'1 1.6
2018-Jun-03 21:30N 51°30' W 002°45'510.7
2018-Jun-03 21:00N 51°28' W 002°53'713.1
2018-Jun-03 20:30N 51°25' W 003°02'813.1
2018-Jun-03 19:54N 51°21' W 003°14'  
Track history (hours):
 
Tides and Currents Weather Stations Pressure Air Temp Water Temp Dewpoint Dewpoint Depression Visibility Wind Speed Wind Dir Waves Ship Positions

Altair Leader

Last reported at 2018-Jun-13 18:22 UTC. Time now 2018-Jun-20 19:09 UTC.
Position N 27°31' W 015°15'.

Length 199 m; draft 7.8 m.

Type: Cargo ship. MMSI: 432817000.

Date/timePositionNaut miles runAvg speedWind from/ knotsBaromVisibWave heightAir tempDewpointWater temp
2018-Jun-13 18:22N 27°31' W 015°15'718.1
2018-Jun-13 18:00N 27°38' W 015°12'918.5
2018-Jun-13 17:30N 27°46' W 015°09'918.5
2018-Jun-13 17:01N 27°55' W 015°05'918.1
2018-Jun-13 16:30N 28°04' W 015°02'918.0
2018-Jun-13 16:01N 28°12' W 014°59'918.2
2018-Jun-13 15:31N 28°21' W 014°55'918.0
2018-Jun-13 15:01N 28°29' W 014°52'918.1
2018-Jun-13 14:30N 28°38' W 014°50'1317.6
2018-Jun-13 13:48N 28°50' W 014°46'917.5
2018-Jun-13 13:16N 28°59' W 014°43'  
2018-Jun-10 16:15N 48°43' W 005°57'518.2
2018-Jun-10 15:59N 48°47' W 005°54'1017.6
2018-Jun-10 15:26N 48°55' W 005°45'716.4
2018-Jun-10 14:58N 48°59' W 005°35'8316.2
2018-Jun-10 09:50N 49°44' W 003°48'619.0
2018-Jun-10 09:31N 49°46' W 003°39'1019.0
2018-Jun-10 09:01N 49°50' W 003°26'1018.9
2018-Jun-10 08:30N 49°54' W 003°12'918.5
2018-Jun-10 08:01N 49°58' W 002°59'918.2
2018-Jun-10 07:31N 50°01' W 002°46'917.6
2018-Jun-10 07:00N 50°03' W 002°33'1217.0
2018-Jun-10 06:18N 50°06' W 002°14'516.4
2018-Jun-10 05:58N 50°07' W 002°06'815.9
2018-Jun-10 05:28N 50°09' W 001°54'815.5
2018-Jun-10 04:57N 50°12' W 001°42'715.5
2018-Jun-10 04:30N 50°14' W 001°32'815.6
2018-Jun-10 04:00N 50°16' W 001°20'815.9
2018-Jun-10 03:29N 50°18' W 001°08'816.6
2018-Jun-10 03:00N 50°20' W 000°56'917.4
2018-Jun-10 02:30N 50°21' W 000°42'917.8
2018-Jun-10 02:00N 50°24' W 000°29'1018.5
2018-Jun-10 01:29N 50°27' W 000°14'919.0
2018-Jun-10 01:00N 50°28' W 000°00'1019.2
2018-Jun-10 00:30N 50°31' E 000°14'1019.1
2018-Jun-10 00:01N 50°34' E 000°28'918.7
2018-Jun-09 23:30N 50°38' E 000°42'918.3
2018-Jun-09 23:00N 50°44' E 000°52'918.0
2018-Jun-09 22:31N 50°50' E 001°02'917.5
2018-Jun-09 22:01N 50°56' E 001°12'816.7
2018-Jun-09 21:30N 51°02' E 001°22'816.6
2018-Jun-09 21:00N 51°07' E 001°33'816.3
2018-Jun-09 20:30N 51°12' E 001°43'816.8
2018-Jun-09 20:01N 51°19' E 001°50'917.7
2018-Jun-09 19:31N 51°27' E 001°57'918.2
2018-Jun-09 19:00N 51°34' E 002°07'918.6
2018-Jun-09 18:30N 51°41' E 002°16'918.9
2018-Jun-09 18:00N 51°48' E 002°27'1019.2
2018-Jun-09 17:31N 51°55' E 002°37'1019.3
2018-Jun-09 17:01N 52°02' E 002°47'1019.4
2018-Jun-09 16:30N 52°10' E 002°58'1019.4
2018-Jun-09 16:00N 52°17' E 003°08'1918.9
2018-Jun-09 14:59N 52°33' E 003°26'918.2
2018-Jun-09 14:30N 52°40' E 003°35'917.8
2018-Jun-09 14:00N 52°47' E 003°43'917.4
2018-Jun-09 13:30N 52°54' E 003°53'917.1
2018-Jun-09 13:00N 52°60' E 004°02'917.2
2018-Jun-09 12:30N 53°06' E 004°13'817.1
2018-Jun-09 12:00N 53°12' E 004°23'917.0
2018-Jun-09 11:30N 53°19' E 004°30'917.6
2018-Jun-09 11:00N 53°27' E 004°37'918.0
2018-Jun-09 10:30N 53°31' E 004°51'918.7
2018-Jun-09 10:00N 53°34' E 005°05'1019.3
2018-Jun-09 09:30N 53°37' E 005°21'1019.1
2018-Jun-09 09:01N 53°40' E 005°36'918.9
2018-Jun-09 08:31N 53°43' E 005°51'918.8
2018-Jun-09 08:00N 53°46' E 006°06'918.4
2018-Jun-09 07:30N 53°49' E 006°21'918.0
2018-Jun-09 06:59N 53°51' E 006°37'817.5
2018-Jun-09 06:30N 53°53' E 006°51'917.2
2018-Jun-09 06:00N 53°55' E 007°04'917.0
2018-Jun-09 05:30N 53°57' E 007°19'816.8
2018-Jun-09 05:01N 53°58' E 007°33'714.1
2018-Jun-09 04:30N 53°55' E 007°43'714.2
2018-Jun-09 04:00N 53°52' E 007°54'612.0
2018-Jun-09 03:30N 53°50' E 008°04'511.0
2018-Jun-09 03:00N 53°46' E 008°10'815.1
2018-Jun-09 02:30N 53°42' E 008°20'815.3
2018-Jun-09 02:00N 53°36' E 008°30'3 6.0
2018-Jun-09 01:30N 53°34' E 008°33'0 0.2
2018-Jun-09 01:00N 53°34' E 008°33'0 0.7
2018-Jun-09 00:28N 53°35' E 008°33'0 0.0
2018-Jun-08 23:58N 53°35' E 008°33'0 0.0
2018-Jun-08 23:25N 53°35' E 008°33'0 0.0
2018-Jun-08 22:58N 53°35' E 008°33'0 0.0
2018-Jun-08 22:28N 53°35' E 008°33'0 0.0
2018-Jun-08 21:58N 53°35' E 008°33'0 0.0
2018-Jun-08 21:28N 53°35' E 008°33'0 0.0
2018-Jun-08 20:58N 53°35' E 008°33'0 0.0
2018-Jun-08 20:28N 53°35' E 008°33'0 0.0
2018-Jun-08 19:58N 53°35' E 008°33'0 0.0
2018-Jun-08 19:28N 53°35' E 008°33'0 0.0
2018-Jun-08 18:58N 53°35' E 008°33'0 0.0
2018-Jun-08 18:28N 53°35' E 008°33'0 0.0
2018-Jun-08 17:55N 53°35' E 008°33'0 0.0
2018-Jun-08 17:28N 53°35' E 008°33'0 0.0
2018-Jun-08 16:58N 53°35' E 008°33'0 0.0
2018-Jun-08 16:28N 53°35' E 008°33'0 0.0
2018-Jun-08 15:58N 53°35' E 008°33'0 0.0
2018-Jun-08 15:28N 53°35' E 008°33'0 0.0
2018-Jun-08 14:58N 53°35' E 008°33'0 0.0
2018-Jun-08 14:28N 53°35' E 008°33'0 0.0
2018-Jun-08 13:58N 53°35' E 008°33'0 0.0
2018-Jun-08 13:25N 53°35' E 008°33'0 0.0
2018-Jun-08 12:58N 53°35' E 008°33'0 0.5
2018-Jun-08 12:30N 53°34' E 008°33'0 0.3
2018-Jun-08 12:00N 53°34' E 008°33'0 0.6
2018-Jun-08 11:30N 53°34' E 008°32'4 8.4
2018-Jun-08 11:00N 53°37' E 008°28'713.7
2018-Jun-08 10:30N 53°42' E 008°20'714.5
2018-Jun-08 10:00N 53°47' E 008°10'714.2
2018-Jun-08 09:30N 53°51' E 008°00'714.2
2018-Jun-08 09:00N 53°54' E 007°49'1 2.5
2018-Jun-08 08:30N 53°54' E 007°48'0 0.0
2018-Jun-08 08:00N 53°54' E 007°48'0 0.0
2018-Jun-08 07:30N 53°54' E 007°48'0 0.0
2018-Jun-08 07:00N 53°54' E 007°48'0 0.1
2018-Jun-08 06:30N 53°54' E 007°48'0 0.0
2018-Jun-08 06:00N 53°54' E 007°48'0 0.0
2018-Jun-08 05:30N 53°54' E 007°48'0 0.0
2018-Jun-08 05:00N 53°54' E 007°48'0 0.0
2018-Jun-08 04:30N 53°54' E 007°48'0 0.0
2018-Jun-08 03:57N 53°54' E 007°48'0 0.0
2018-Jun-08 03:30N 53°54' E 007°48'0 0.0
2018-Jun-08 03:00N 53°54' E 007°48'0 0.0
2018-Jun-08 02:15N 53°54' E 007°48'0 0.0
2018-Jun-08 02:00N 53°54' E 007°48'0 0.0
2018-Jun-08 01:27N 53°54' E 007°48'0 0.0
2018-Jun-08 00:48N 53°54' E 007°48'0 0.0
2018-Jun-08 00:27N 53°54' E 007°48'0 0.0
2018-Jun-08 00:00N 53°54' E 007°48'0 0.0
2018-Jun-07 23:27N 53°54' E 007°48'0 0.0
2018-Jun-07 23:00N 53°54' E 007°48'0 0.0
2018-Jun-07 22:30N 53°54' E 007°48'0 0.0
2018-Jun-07 22:00N 53°54' E 007°48'0 0.0
2018-Jun-07 21:12N 53°54' E 007°48'1 0.5
2018-Jun-07 19:16N 53°54' E 007°46'4313.2
2018-Jun-07 16:02N 53°46' E 006°35'214.8
2018-Jun-07 15:53N 53°46' E 006°31'614.9
2018-Jun-07 15:27N 53°44' E 006°21'715.0
2018-Jun-07 14:57N 53°42' E 006°09'715.0
2018-Jun-07 14:28N 53°40' E 005°57'715.1
2018-Jun-07 14:00N 53°38' E 005°46'815.3
2018-Jun-07 13:30N 53°35' E 005°34'815.7
2018-Jun-07 13:01N 53°33' E 005°21'815.5
2018-Jun-07 12:31N 53°31' E 005°08'815.5
2018-Jun-07 12:01N 53°28' E 004°56'4260.8
2018-Jun-07 12:00N 53°24' E 004°54'611.9 340 / 121015.910.8 18.016.315.0
2018-Jun-07 11:30N 53°25' E 004°44'815.4
2018-Jun-07 11:00N 53°18' E 004°38'815.9
2018-Jun-07 10:30N 53°12' E 004°31'918.8
2018-Jun-07 10:00N 53°03' E 004°23'919.0
2018-Jun-07 09:31N 52°55' E 004°16'918.7
2018-Jun-07 09:00N 52°47' E 004°08'918.4
2018-Jun-07 08:31N 52°40' E 003°58'918.3
2018-Jun-07 08:01N 52°33' E 003°49'918.0
2018-Jun-07 07:30N 52°26' E 003°38'918.1
2018-Jun-07 07:00N 52°20' E 003°27'1018.0
2018-Jun-07 06:29N 52°14' E 003°16'917.7
2018-Jun-07 06:00N 52°07' E 003°06'2617.2
2018-Jun-07 04:30N 51°48' E 002°39'1216.0
2018-Jun-07 03:46N 51°36' E 002°42'516.6
2018-Jun-07 03:28N 51°31' E 002°42'715.3
2018-Jun-07 02:59N 51°24' E 002°43'511.4
2018-Jun-07 02:31N 51°25' E 002°51'916.7
2018-Jun-07 01:58N 51°24' E 003°06'511.6
2018-Jun-07 01:30N 51°21' E 003°12'1 1.3
2018-Jun-07 00:59N 51°20' E 003°13'0 0.0
2018-Jun-07 00:30N 51°20' E 003°13'0 0.2
2018-Jun-07 00:00N 51°20' E 003°13'2 3.7
2018-Jun-06 23:30N 51°18' E 003°14'0 0.0
2018-Jun-06 23:00N 51°18' E 003°14'0 0.0
2018-Jun-06 22:30N 51°18' E 003°14'0 0.0
2018-Jun-06 21:57N 51°18' E 003°14'0 0.0
2018-Jun-06 21:24N 51°18' E 003°14'0 0.0
2018-Jun-06 21:00N 51°18' E 003°14'0 0.0
2018-Jun-06 20:27N 51°18' E 003°14'0 0.0
2018-Jun-06 20:00N 51°18' E 003°14'0 0.0
2018-Jun-06 19:30N 51°18' E 003°14'0 0.0
2018-Jun-06 19:00N 51°18' E 003°14'0 0.0
2018-Jun-06 17:03N 51°18' E 003°14'0 0.0
2018-Jun-06 16:42N 51°18' E 003°14'0 0.0
2018-Jun-06 16:27N 51°18' E 003°14'0 0.0
2018-Jun-06 15:48N 51°18' E 003°14'0 0.0
2018-Jun-06 15:27N 51°18' E 003°14'0 0.0
2018-Jun-06 14:57N 51°18' E 003°14'0 0.0
2018-Jun-06 14:30N 51°18' E 003°14'0 0.0
2018-Jun-06 14:00N 51°18' E 003°14'0 0.0
2018-Jun-06 13:30N 51°18' E 003°14'0 0.0
2018-Jun-06 13:00N 51°18' E 003°14'0 0.0
2018-Jun-06 12:30N 51°18' E 003°14'0 0.0
2018-Jun-06 11:57N 51°18' E 003°14'0 0.0
2018-Jun-06 11:30N 51°18' E 003°14'0 0.0
2018-Jun-06 10:57N 51°18' E 003°14'0 0.0
2018-Jun-06 10:30N 51°18' E 003°14'0 0.0
2018-Jun-06 10:00N 51°18' E 003°14'0 0.0
2018-Jun-06 09:27N 51°18' E 003°14'0 0.0
2018-Jun-06 09:00N 51°18' E 003°14'0 0.0
2018-Jun-06 08:30N 51°18' E 003°14'0 0.0
2018-Jun-06 07:57N 51°18' E 003°14'0 0.0
2018-Jun-06 07:30N 51°18' E 003°14'0 0.0
2018-Jun-06 07:00N 51°18' E 003°14'0 0.0
2018-Jun-06 06:30N 51°18' E 003°14'0 0.0
2018-Jun-06 06:00N 51°18' E 003°14'0 0.0
2018-Jun-06 05:30N 51°18' E 003°14'0 0.0
2018-Jun-06 05:00N 51°18' E 003°14'0 0.0
2018-Jun-06 04:27N 51°18' E 003°14'0 0.0
2018-Jun-06 04:00N 51°18' E 003°14'0 0.0
2018-Jun-06 03:30N 51°18' E 003°14'0 0.0
2018-Jun-06 03:00N 51°18' E 003°14'0 0.0
2018-Jun-06 02:30N 51°18' E 003°14'0 0.0
2018-Jun-06 02:00N 51°18' E 003°14'0 0.0
2018-Jun-06 01:30N 51°18' E 003°14'2 3.2
2018-Jun-06 01:00N 51°20' E 003°13'0 0.6
2018-Jun-06 00:30N 51°20' E 003°13'0 0.0
2018-Jun-06 00:00N 51°20' E 003°13'1 2.7
2018-Jun-05 23:30N 51°21' E 003°12'510.8
2018-Jun-05 23:01N 51°24' E 003°05'713.7
2018-Jun-05 22:30N 51°22' E 002°54'612.4
2018-Jun-05 22:00N 51°22' E 002°44'5 8.6
2018-Jun-05 21:28N 51°22' E 002°37'2 4.6
2018-Jun-05 21:00N 51°22' E 002°33'510.3
2018-Jun-05 20:30N 51°20' E 002°26'510.9
2018-Jun-05 20:00N 51°18' E 002°18'714.3
2018-Jun-05 19:30N 51°15' E 002°08'917.1
2018-Jun-05 19:00N 51°11' E 001°56'917.7
2018-Jun-05 18:30N 51°05' E 001°45'918.2
2018-Jun-05 18:00N 50°58' E 001°35'918.1
2018-Jun-05 17:29N 50°51' E 001°25'917.9
2018-Jun-05 16:58N 50°42' E 001°21'816.8
2018-Jun-05 16:29N 50°36' E 001°12'917.1
2018-Jun-05 15:58N 50°31' E 001°02'1516.8
2018-Jun-05 15:03N 50°26' E 000°39'317.1
2018-Jun-05 14:53N 50°25' E 000°35'717.4
2018-Jun-05 14:30N 50°23' E 000°25'918.0
2018-Jun-05 14:00N 50°21' E 000°11'918.3
2018-Jun-05 13:30N 50°18' W 000°02'918.7
2018-Jun-05 13:00N 50°15' W 000°17'918.9
2018-Jun-05 12:30N 50°13' W 000°31'1019.3
2018-Jun-05 12:00N 50°06' W 000°42'5106.7 040 / 131015.310.8 15.015.013.0
2018-Jun-05 11:56N 50°10' W 000°47'819.4
2018-Jun-05 11:31N 50°08' W 000°60'1019.3
2018-Jun-05 11:01N 50°06' W 001°15'1019.0
2018-Jun-05 10:31N 50°03' W 001°28'918.9
2018-Jun-05 10:00N 50°00' W 001°43'918.3
2018-Jun-05 09:31N 49°59' W 001°57'917.8
2018-Jun-05 09:00N 49°56' W 002°10'2417.1
2018-Jun-05 07:34N 49°51' W 002°47'617.0
2018-Jun-05 07:15N 49°50' W 002°56'716.8
2018-Jun-05 06:49N 49°50' W 003°06'516.7
2018-Jun-05 06:31N 49°49' W 003°15'816.5
2018-Jun-05 06:00N 49°49' W 003°28'816.3
2018-Jun-05 05:30N 49°49' W 003°40'9211.4
2018-Jun-04 21:29N 50°33' W 005°46'817.2
2018-Jun-04 21:00N 50°38' W 005°36'917.1
2018-Jun-04 20:30N 50°43' W 005°25'917.1
2018-Jun-04 20:00N 50°48' W 005°14'917.1
2018-Jun-04 19:30N 50°53' W 005°03'817.0
2018-Jun-04 19:00N 50°59' W 004°52'815.8
2018-Jun-04 18:30N 51°03' W 004°42'612.9
2018-Jun-04 18:01N 51°07' W 004°34'713.3
2018-Jun-04 17:29N 51°12' W 004°26'1013.5
2018-Jun-04 16:44N 51°18' W 004°13'3615.3
2018-Jun-04 14:21N 51°21' W 003°15'410.8
2018-Jun-04 13:58N 51°22' W 003°08'816.6
2018-Jun-04 13:30N 51°27' W 002°59'11 5.2
2018-Jun-04 11:30N 51°30' W 002°43'0 0.0
2018-Jun-04 11:00N 51°30' W 002°43'0 0.0
2018-Jun-04 10:30N 51°30' W 002°43'0 0.0
2018-Jun-04 10:00N 51°30' W 002°43'0 0.0
2018-Jun-04 09:30N 51°30' W 002°43'0 0.0
2018-Jun-04 09:00N 51°30' W 002°43'0 0.0
2018-Jun-04 08:30N 51°30' W 002°43'0 0.0
2018-Jun-04 08:00N 51°30' W 002°43'0 0.0
2018-Jun-04 07:30N 51°30' W 002°43'0 0.0
2018-Jun-04 07:00N 51°30' W 002°43'0 0.0
2018-Jun-04 06:30N 51°30' W 002°43'0 0.0
2018-Jun-04 05:54N 51°30' W 002°43'0 0.0
2018-Jun-04 05:30N 51°30' W 002°43'0 0.0
2018-Jun-04 05:00N 51°30' W 002°43'0 0.0
2018-Jun-04 04:30N 51°30' W 002°43'0 0.0
2018-Jun-04 04:00N 51°30' W 002°43'0 0.0
2018-Jun-04 03:30N 51°30' W 002°43'0 0.0
2018-Jun-04 03:00N 51°30' W 002°43'0 0.0
2018-Jun-04 02:30N 51°30' W 002°43'0 0.0
2018-Jun-04 02:00N 51°30' W 002°43'0 0.0
2018-Jun-04 01:30N 51°30' W 002°43'0 0.0
2018-Jun-04 01:00N 51°30' W 002°43'0 0.0
2018-Jun-04 00:30N 51°30' W 002°43'0 0.0
2018-Jun-04 00:00N 51°30' W 002°43'0 0.0
2018-Jun-03 23:30N 51°30' W 002°43'0 0.0
2018-Jun-03 23:00N 51°30' W 002°43'0 0.8
2018-Jun-03 22:30N 51°30' W 002°43'0 0.9
2018-Jun-03 22:00N 51°30' W 002°44'1 1.6
2018-Jun-03 21:30N 51°30' W 002°45'510.7
2018-Jun-03 21:00N 51°28' W 002°53'713.1
2018-Jun-03 20:30N 51°25' W 003°02'813.1
2018-Jun-03 19:54N 51°21' W 003°14'  

Dump ship's entire track history